sensor_id;sensor_type;location;lat;lon;timestamp;pressure;altitude;pressure_sealevel;temperature;humidity
31538;BME280;18147;51.952;6.146;2022-12-05T00:02:09;101733.06;;;2.12;100.00
31538;BME280;18147;51.952;6.146;2022-12-05T00:04:34;101731.28;;;2.12;100.00
31538;BME280;18147;51.952;6.146;2022-12-05T00:07:00;101729.56;;;2.10;100.00
31538;BME280;18147;51.952;6.146;2022-12-05T00:09:25;101735.69;;;2.10;100.00
31538;BME280;18147;51.952;6.146;2022-12-05T00:11:51;101735.69;;;2.12;100.00
31538;BME280;18147;51.952;6.146;2022-12-05T00:14:17;101735.69;;;2.10;100.00
31538;BME280;18147;51.952;6.146;2022-12-05T00:16:42;101738.28;;;2.13;100.00
31538;BME280;18147;51.952;6.146;2022-12-05T00:19:11;101740.09;;;2.11;100.00
31538;BME280;18147;51.952;6.146;2022-12-05T00:21:37;101728.66;;;2.12;100.00
31538;BME280;18147;51.952;6.146;2022-12-05T00:24:05;101731.28;;;2.12;100.00
31538;BME280;18147;51.952;6.146;2022-12-05T00:26:32;101731.25;;;2.14;100.00
31538;BME280;18147;51.952;6.146;2022-12-05T00:28:57;101722.50;;;2.13;100.00
31538;BME280;18147;51.952;6.146;2022-12-05T00:31:24;101726.94;;;2.11;100.00
31538;BME280;18147;51.952;6.146;2022-12-05T00:33:50;101727.72;;;2.16;100.00
31538;BME280;18147;51.952;6.146;2022-12-05T00:36:19;101725.97;;;2.15;100.00
31538;BME280;18147;51.952;6.146;2022-12-05T00:38:44;101718.09;;;2.14;100.00
31538;BME280;18147;51.952;6.146;2022-12-05T00:41:17;101708.44;;;2.14;100.00
31538;BME280;18147;51.952;6.146;2022-12-05T00:43:42;101718.06;;;2.15;100.00
31538;BME280;18147;51.952;6.146;2022-12-05T00:46:17;101718.06;;;2.17;100.00
31538;BME280;18147;51.952;6.146;2022-12-05T00:48:43;101715.41;;;2.18;100.00
31538;BME280;18147;51.952;6.146;2022-12-05T00:53:39;101712.81;;;2.17;100.00
31538;BME280;18147;51.952;6.146;2022-12-05T00:56:30;101710.13;;;2.20;100.00
31538;BME280;18147;51.952;6.146;2022-12-05T00:58:56;101713.63;;;2.20;100.00
31538;BME280;18147;51.952;6.146;2022-12-05T01:01:24;101716.25;;;2.20;100.00
31538;BME280;18147;51.952;6.146;2022-12-05T01:03:55;101718.88;;;2.20;100.00
31538;BME280;18147;51.952;6.146;2022-12-05T01:06:22;101718.88;;;2.22;100.00
31538;BME280;18147;51.952;6.146;2022-12-05T01:08:49;101722.38;;;2.22;100.00
31538;BME280;18147;51.952;6.146;2022-12-05T01:11:16;101720.56;;;2.24;100.00
31538;BME280;18147;51.952;6.146;2022-12-05T01:13:43;101724.06;;;2.26;100.00
31538;BME280;18147;51.952;6.146;2022-12-05T01:16:20;101721.44;;;2.26;100.00
31538;BME280;18147;51.952;6.146;2022-12-05T01:18:46;101717.91;;;2.26;100.00
31538;BME280;18147;51.952;6.146;2022-12-05T01:21:11;101723.09;;;2.30;100.00
31538;BME280;18147;51.952;6.146;2022-12-05T01:23:37;101724.91;;;2.28;100.00
31538;BME280;18147;51.952;6.146;2022-12-05T01:26:07;101727.53;;;2.28;100.00
31538;BME280;18147;51.952;6.146;2022-12-05T01:28:34;101730.13;;;2.31;100.00
31538;BME280;18147;51.952;6.146;2022-12-05T01:31:07;101731.00;;;2.30;100.00
31538;BME280;18147;51.952;6.146;2022-12-05T01:33:34;101736.25;;;2.33;100.00
31538;BME280;18147;51.952;6.146;2022-12-05T01:36:01;101731.00;;;2.32;100.00
31538;BME280;18147;51.952;6.146;2022-12-05T01:38:26;101731.91;;;2.31;100.00
31538;BME280;18147;51.952;6.146;2022-12-05T01:41:00;101734.53;;;2.31;100.00
31538;BME280;18147;51.952;6.146;2022-12-05T01:43:26;101735.41;;;2.31;100.00
31538;BME280;18147;51.952;6.146;2022-12-05T01:45:51;101732.78;;;2.30;100.00
31538;BME280;18147;51.952;6.146;2022-12-05T01:48:19;101737.16;;;2.31;100.00
31538;BME280;18147;51.952;6.146;2022-12-05T01:50:47;101740.66;;;2.30;100.00
31538;BME280;18147;51.952;6.146;2022-12-05T01:53:15;101740.66;;;2.30;100.00
31538;BME280;18147;51.952;6.146;2022-12-05T01:55:41;101738.97;;;2.27;100.00
31538;BME280;18147;51.952;6.146;2022-12-05T01:58:07;101738.06;;;2.28;100.00
31538;BME280;18147;51.952;6.146;2022-12-05T02:00:34;101742.41;;;2.32;100.00
31538;BME280;18147;51.952;6.146;2022-12-05T02:03:03;101740.69;;;2.28;100.00
31538;BME280;18147;51.952;6.146;2022-12-05T02:05:32;101731.91;;;2.29;100.00
31538;BME280;18147;51.952;6.146;2022-12-05T02:08:00;101738.03;;;2.30;100.00
31538;BME280;18147;51.952;6.146;2022-12-05T02:10:27;101735.41;;;2.30;100.00
31538;BME280;18147;51.952;6.146;2022-12-05T02:12:58;101741.53;;;2.32;100.00
31538;BME280;18147;51.952;6.146;2022-12-05T02:23:47;101745.88;;;2.34;100.00
31538;BME280;18147;51.952;6.146;2022-12-05T02:29:54;101744.94;;;2.39;100.00
31538;BME280;18147;51.952;6.146;2022-12-05T02:35:05;101737.03;;;2.39;100.00
31538;BME280;18147;51.952;6.146;2022-12-05T02:43:18;101740.50;;;2.42;100.00
31538;BME280;18147;51.952;6.146;2022-12-05T02:45:48;101741.41;;;2.41;100.00
31538;BME280;18147;51.952;6.146;2022-12-05T02:48:16;101746.66;;;2.40;100.00
31538;BME280;18147;51.952;6.146;2022-12-05T02:50:43;101748.41;;;2.41;100.00
31538;BME280;18147;51.952;6.146;2022-12-05T02:53:10;101745.75;;;2.41;100.00
31538;BME280;18147;51.952;6.146;2022-12-05T02:55:39;101745.75;;;2.42;100.00
31538;BME280;18147;51.952;6.146;2022-12-05T02:58:09;101741.38;;;2.43;100.00
31538;BME280;18147;51.952;6.146;2022-12-05T03:00:38;101745.75;;;2.41;100.00
31538;BME280;18147;51.952;6.146;2022-12-05T03:03:11;101746.66;;;2.41;100.00
31538;BME280;18147;51.952;6.146;2022-12-05T03:05:54;101757.16;;;2.43;100.00
31538;BME280;18147;51.952;6.146;2022-12-05T03:08:25;101743.16;;;2.39;100.00
31538;BME280;18147;51.952;6.146;2022-12-05T03:10:53;101746.66;;;2.40;100.00
31538;BME280;18147;51.952;6.146;2022-12-05T03:13:26;101742.19;;;2.45;100.00
31538;BME280;18147;51.952;6.146;2022-12-05T03:15:59;101742.22;;;2.43;100.00
31538;BME280;18147;51.952;6.146;2022-12-05T03:18:30;101745.75;;;2.42;100.00
31538;BME280;18147;51.952;6.146;2022-12-05T03:21:04;101745.75;;;2.42;100.00
31538;BME280;18147;51.952;6.146;2022-12-05T03:23:35;101744.88;;;2.43;100.00
31538;BME280;18147;51.952;6.146;2022-12-05T03:29:19;101753.59;;;2.47;100.00
31538;BME280;18147;51.952;6.146;2022-12-05T03:35:35;101743.06;;;2.45;100.00
31538;BME280;18147;51.952;6.146;2022-12-05T03:37:51;101758.84;;;2.45;100.00
31538;BME280;18147;51.952;6.146;2022-12-05T03:41:12;101748.34;;;2.47;100.00
31538;BME280;18147;51.952;6.146;2022-12-05T03:43:30;101749.13;;;2.50;100.00
31538;BME280;18147;51.952;6.146;2022-12-05T03:46:21;101755.31;;;2.48;100.00
31538;BME280;18147;51.952;6.146;2022-12-05T03:51:54;101752.63;;;2.51;100.00
31538;BME280;18147;51.952;6.146;2022-12-05T03:54:25;101752.63;;;2.51;100.00
31538;BME280;18147;51.952;6.146;2022-12-05T03:57:01;101742.09;;;2.52;100.00
31538;BME280;18147;51.952;6.146;2022-12-05T03:59:49;101747.31;;;2.54;100.00
31538;BME280;18147;51.952;6.146;2022-12-05T04:02:31;101751.69;;;2.55;100.00
31538;BME280;18147;51.952;6.146;2022-12-05T04:05:04;101754.41;;;2.52;100.00
31538;BME280;18147;51.952;6.146;2022-12-05T04:07:33;101751.75;;;2.52;100.00
31538;BME280;18147;51.952;6.146;2022-12-05T04:10:04;101756.97;;;2.55;100.00
31538;BME280;18147;51.952;6.146;2022-12-05T04:12:32;101752.63;;;2.52;100.00
31538;BME280;18147;51.952;6.146;2022-12-05T04:15:03;101753.53;;;2.51;100.00
31538;BME280;18147;51.952;6.146;2022-12-05T04:17:43;101754.41;;;2.52;100.00
31538;BME280;18147;51.952;6.146;2022-12-05T04:20:19;101754.34;;;2.53;100.00
31538;BME280;18147;51.952;6.146;2022-12-05T04:23:05;101754.34;;;2.53;100.00
31538;BME280;18147;51.952;6.146;2022-12-05T04:25:37;101749.09;;;2.53;100.00
31538;BME280;18147;51.952;6.146;2022-12-05T04:33:50;101758.66;;;2.59;100.00
31538;BME280;18147;51.952;6.146;2022-12-05T04:36:33;101753.38;;;2.59;100.00
31538;BME280;18147;51.952;6.146;2022-12-05T04:39:06;101749.84;;;2.62;100.00
31538;BME280;18147;51.952;6.146;2022-12-05T04:41:41;101753.31;;;2.64;100.00
31538;BME280;18147;51.952;6.146;2022-12-05T04:44:16;101750.72;;;2.62;100.00
31538;BME280;18147;51.952;6.146;2022-12-05T04:46:44;101758.56;;;2.65;100.00
31538;BME280;18147;51.952;6.146;2022-12-05T04:49:16;101753.25;;;2.68;100.00
31538;BME280;18147;51.952;6.146;2022-12-05T04:51:44;101753.31;;;2.64;100.00
31538;BME280;18147;51.952;6.146;2022-12-05T04:54:18;101752.41;;;2.66;100.00
31538;BME280;18147;51.952;6.146;2022-12-05T04:56:46;101754.97;;;2.69;100.00
31538;BME280;18147;51.952;6.146;2022-12-05T04:59:12;101755.84;;;2.70;100.00
31538;BME280;18147;51.952;6.146;2022-12-05T05:01:43;101749.69;;;2.71;100.00
31538;BME280;18147;51.952;6.146;2022-12-05T05:04:25;101752.31;;;2.72;100.00
31538;BME280;18147;51.952;6.146;2022-12-05T05:06:51;101753.22;;;2.71;100.00
31538;BME280;18147;51.952;6.146;2022-12-05T05:09:17;101747.94;;;2.71;100.00
31538;BME280;18147;51.952;6.146;2022-12-05T05:11:42;101746.16;;;2.73;100.00
31538;BME280;18147;51.952;6.146;2022-12-05T05:14:08;101754.03;;;2.73;100.00
31538;BME280;18147;51.952;6.146;2022-12-05T05:16:37;101757.50;;;2.75;100.00
31538;BME280;18147;51.952;6.146;2022-12-05T05:19:04;101753.09;;;2.77;100.00
31538;BME280;18147;51.952;6.146;2022-12-05T05:21:35;101756.63;;;2.76;100.00
31538;BME280;18147;51.952;6.146;2022-12-05T05:24:01;101763.59;;;2.79;100.00
31538;BME280;18147;51.952;6.146;2022-12-05T05:26:28;101765.34;;;2.80;100.00
31538;BME280;18147;51.952;6.146;2022-12-05T05:28:53;101765.34;;;2.81;100.00
31538;BME280;18147;51.952;6.146;2022-12-05T05:31:20;101771.47;;;2.80;100.00
31538;BME280;18147;51.952;6.146;2022-12-05T05:33:53;101757.44;;;2.81;100.00
31538;BME280;18147;51.952;6.146;2022-12-05T05:36:21;101767.97;;;2.81;100.00
31538;BME280;18147;51.952;6.146;2022-12-05T05:38:55;101761.81;;;2.82;100.00
31538;BME280;18147;51.952;6.146;2022-12-05T05:41:23;101762.66;;;2.83;100.00
31538;BME280;18147;51.952;6.146;2022-12-05T05:43:50;101764.41;;;2.84;100.00
31538;BME280;18147;51.952;6.146;2022-12-05T05:46:18;101771.41;;;2.85;100.00
31538;BME280;18147;51.952;6.146;2022-12-05T05:48:45;101763.50;;;2.87;100.00
31538;BME280;18147;51.952;6.146;2022-12-05T05:51:12;101766.97;;;2.89;100.00
31538;BME280;18147;51.952;6.146;2022-12-05T05:53:38;101768.72;;;2.88;100.00
31538;BME280;18147;51.952;6.146;2022-12-05T05:56:05;101772.19;;;2.90;100.00
31538;BME280;18147;51.952;6.146;2022-12-05T05:58:31;101772.22;;;2.89;100.00
31538;BME280;18147;51.952;6.146;2022-12-05T06:03:28;101771.38;;;2.88;100.00
31538;BME280;18147;51.952;6.146;2022-12-05T06:05:58;101768.75;;;2.87;100.00
31538;BME280;18147;51.952;6.146;2022-12-05T06:08:24;101763.44;;;2.90;100.00
31538;BME280;18147;51.952;6.146;2022-12-05T06:10:49;101758.16;;;2.90;100.00
31538;BME280;18147;51.952;6.146;2022-12-05T06:13:15;101772.22;;;2.89;100.00
31538;BME280;18147;51.952;6.146;2022-12-05T06:15:40;101761.66;;;2.90;100.00
31538;BME280;18147;51.952;6.146;2022-12-05T06:18:05;101765.16;;;2.91;100.00
31538;BME280;18147;51.952;6.146;2022-12-05T06:20:31;101766.03;;;2.91;100.00
31538;BME280;18147;51.952;6.146;2022-12-05T06:22:56;101768.66;;;2.93;100.00
31538;BME280;18147;51.952;6.146;2022-12-05T06:25:22;101762.44;;;2.97;100.00
31538;BME280;18147;51.952;6.146;2022-12-05T06:27:47;101766.88;;;2.93;100.00
31538;BME280;18147;51.952;6.146;2022-12-05T06:30:13;101771.22;;;2.96;100.00
31538;BME280;18147;51.952;6.146;2022-12-05T06:32:38;101762.47;;;2.94;100.00
31538;BME280;18147;51.952;6.146;2022-12-05T06:35:04;101770.34;;;2.95;100.00
31538;BME280;18147;51.952;6.146;2022-12-05T06:37:43;101770.34;;;2.95;100.00
31538;BME280;18147;51.952;6.146;2022-12-05T06:40:12;101778.25;;;2.95;100.00
31538;BME280;18147;51.952;6.146;2022-12-05T06:42:38;101778.25;;;2.95;100.00
31538;BME280;18147;51.952;6.146;2022-12-05T06:45:04;101785.28;;;2.96;100.00
31538;BME280;18147;51.952;6.146;2022-12-05T06:47:30;101774.75;;;2.96;100.00
31538;BME280;18147;51.952;6.146;2022-12-05T06:49:56;101781.75;;;2.97;100.00
31538;BME280;18147;51.952;6.146;2022-12-05T06:52:21;101786.97;;;2.99;100.00
31538;BME280;18147;51.952;6.146;2022-12-05T06:54:47;101789.59;;;3.00;100.00
31538;BME280;18147;51.952;6.146;2022-12-05T06:57:13;101788.72;;;3.01;100.00
31538;BME280;18147;51.952;6.146;2022-12-05T06:59:38;101786.06;;;3.01;100.00
31538;BME280;18147;51.952;6.146;2022-12-05T07:02:04;101793.00;;;3.07;100.00
31538;BME280;18147;51.952;6.146;2022-12-05T07:04:33;101796.50;;;3.06;100.00
31538;BME280;18147;51.952;6.146;2022-12-05T07:06:59;101796.53;;;3.04;100.00
31538;BME280;18147;51.952;6.146;2022-12-05T07:09:27;101790.38;;;3.05;100.00
31538;BME280;18147;51.952;6.146;2022-12-05T07:12:17;101794.81;;;3.03;100.00
31538;BME280;18147;51.952;6.146;2022-12-05T07:14:42;101798.34;;;3.01;100.00
31538;BME280;18147;51.952;6.146;2022-12-05T07:17:08;101789.56;;;3.02;100.00
31538;BME280;18147;51.952;6.146;2022-12-05T07:19:34;101788.72;;;3.00;100.00
31538;BME280;18147;51.952;6.146;2022-12-05T07:21:59;101793.09;;;3.01;100.00
31538;BME280;18147;51.952;6.146;2022-12-05T07:24:25;101799.25;;;3.00;100.00
31538;BME280;18147;51.952;6.146;2022-12-05T07:26:51;101796.63;;;3.00;100.00
31538;BME280;18147;51.952;6.146;2022-12-05T07:29:16;101800.13;;;3.00;100.00
31538;BME280;18147;51.952;6.146;2022-12-05T07:31:42;101799.22;;;3.03;100.00
31538;BME280;18147;51.952;6.146;2022-12-05T07:34:07;101805.34;;;3.03;100.00
31538;BME280;18147;51.952;6.146;2022-12-05T07:36:33;101805.38;;;3.02;100.00
31538;BME280;18147;51.952;6.146;2022-12-05T07:38:58;101811.53;;;3.02;100.00
31538;BME280;18147;51.952;6.146;2022-12-05T07:41:26;101815.94;;;3.00;100.00
31538;BME280;18147;51.952;6.146;2022-12-05T07:43:54;101812.41;;;3.01;100.00
31538;BME280;18147;51.952;6.146;2022-12-05T07:46:19;101820.31;;;3.01;100.00
31538;BME280;18147;51.952;6.146;2022-12-05T07:48:46;101826.47;;;3.02;100.00
31538;BME280;18147;51.952;6.146;2022-12-05T07:51:12;101825.59;;;3.01;100.00
31538;BME280;18147;51.952;6.146;2022-12-05T07:53:38;101829.03;;;3.05;100.00
31538;BME280;18147;51.952;6.146;2022-12-05T07:56:07;101826.47;;;3.02;100.00
31538;BME280;18147;51.952;6.146;2022-12-05T07:58:33;101827.34;;;3.01;100.00
31538;BME280;18147;51.952;6.146;2022-12-05T08:01:07;101824.69;;;3.01;100.00
31538;BME280;18147;51.952;6.146;2022-12-05T08:03:34;101829.97;;;3.02;100.00
31538;BME280;18147;51.952;6.146;2022-12-05T08:06:03;101824.69;;;3.01;100.00
31538;BME280;18147;51.952;6.146;2022-12-05T08:08:28;101827.34;;;3.01;100.00
31538;BME280;18147;51.952;6.146;2022-12-05T08:10:55;101829.09;;;3.02;100.00
31538;BME280;18147;51.952;6.146;2022-12-05T08:13:20;101837.00;;;3.00;100.00
31538;BME280;18147;51.952;6.146;2022-12-05T08:15:46;101838.72;;;3.03;100.00
31538;BME280;18147;51.952;6.146;2022-12-05T08:18:11;101840.44;;;3.05;100.00
31538;BME280;18147;51.952;6.146;2022-12-05T08:20:37;101842.19;;;3.05;100.00
31538;BME280;18147;51.952;6.146;2022-12-05T08:23:02;101846.50;;;3.10;100.00
31538;BME280;18147;51.952;6.146;2022-12-05T08:25:28;101852.75;;;3.05;100.00
31538;BME280;18147;51.952;6.146;2022-12-05T08:27:53;101854.47;;;3.06;100.00
31538;BME280;18147;51.952;6.146;2022-12-05T08:30:19;101852.66;;;3.09;100.00
31538;BME280;18147;51.952;6.146;2022-12-05T08:32:44;101858.78;;;3.13;100.00
31538;BME280;18147;51.952;6.146;2022-12-05T08:35:10;101863.13;;;3.14;100.00
31538;BME280;18147;51.952;6.146;2022-12-05T08:37:35;101860.47;;;3.16;100.00
31538;BME280;18147;51.952;6.146;2022-12-05T08:40:00;101860.53;;;3.13;100.00
31538;BME280;18147;51.952;6.146;2022-12-05T08:42:26;101863.25;;;3.08;100.00
31538;BME280;18147;51.952;6.146;2022-12-05T08:44:51;101874.53;;;3.15;100.00
31538;BME280;18147;51.952;6.146;2022-12-05T08:47:17;101870.13;;;3.15;100.00
31538;BME280;18147;51.952;6.146;2022-12-05T08:49:42;101864.84;;;3.18;100.00
31538;BME280;18147;51.952;6.146;2022-12-05T08:52:08;101869.19;;;3.19;100.00
31538;BME280;18147;51.952;6.146;2022-12-05T08:54:33;101869.25;;;3.16;100.00
31538;BME280;18147;51.952;6.146;2022-12-05T08:56:59;101870.97;;;3.19;100.00
31538;BME280;18147;51.952;6.146;2022-12-05T08:59:24;101864.75;;;3.21;100.00
31538;BME280;18147;51.952;6.146;2022-12-05T09:01:50;101869.19;;;3.19;100.00
31538;BME280;18147;51.952;6.146;2022-12-05T09:04:15;101869.97;;;3.27;100.00
31538;BME280;18147;51.952;6.146;2022-12-05T09:06:41;101872.63;;;3.24;100.00
31538;BME280;18147;51.952;6.146;2022-12-05T09:09:08;101873.44;;;3.29;100.00
31538;BME280;18147;51.952;6.146;2022-12-05T09:11:38;101872.66;;;3.23;100.00
31538;BME280;18147;51.952;6.146;2022-12-05T09:14:05;101873.56;;;3.22;100.00
31538;BME280;18147;51.952;6.146;2022-12-05T09:16:35;101879.72;;;3.22;100.00
31538;BME280;18147;51.952;6.146;2022-12-05T09:19:10;101877.94;;;3.21;100.00
31538;BME280;18147;51.952;6.146;2022-12-05T09:21:35;101878.78;;;3.25;100.00
31538;BME280;18147;51.952;6.146;2022-12-05T09:24:01;101880.47;;;3.29;100.00
31538;BME280;18147;51.952;6.146;2022-12-05T09:26:28;101880.53;;;3.24;100.00
31538;BME280;18147;51.952;6.146;2022-12-05T09:28:55;101887.50;;;3.28;100.00
31538;BME280;18147;51.952;6.146;2022-12-05T09:31:23;101891.75;;;3.37;100.00
31538;BME280;18147;51.952;6.146;2022-12-05T09:33:50;101892.69;;;3.34;100.00
31538;BME280;18147;51.952;6.146;2022-12-05T09:36:21;101900.50;;;3.39;100.00
31538;BME280;18147;51.952;6.146;2022-12-05T09:38:47;101890.69;;;3.49;100.00
31538;BME280;18147;51.952;6.146;2022-12-05T09:41:37;101906.66;;;3.40;100.00
31538;BME280;18147;51.952;6.146;2022-12-05T09:44:42;101897.84;;;3.41;100.00
31538;BME280;18147;51.952;6.146;2022-12-05T09:47:22;101904.81;;;3.45;100.00
31538;BME280;18147;51.952;6.146;2022-12-05T09:49:57;101909.31;;;3.38;100.00
31538;BME280;18147;51.952;6.146;2022-12-05T09:52:37;101907.50;;;3.40;100.00
31538;BME280;18147;51.952;6.146;2022-12-05T09:55:10;101909.19;;;3.46;100.00
31538;BME280;18147;51.952;6.146;2022-12-05T09:57:39;101904.09;;;3.36;100.00
31538;BME280;18147;51.952;6.146;2022-12-05T10:00:09;101904.91;;;3.38;100.00
31538;BME280;18147;51.952;6.146;2022-12-05T10:02:52;101908.34;;;3.44;100.00
31538;BME280;18147;51.952;6.146;2022-12-05T10:08:53;101907.41;;;3.48;100.00
31538;BME280;18147;51.952;6.146;2022-12-05T10:11:28;101903.72;;;3.58;100.00
31538;BME280;18147;51.952;6.146;2022-12-05T10:14:20;101901.03;;;3.59;100.00
31538;BME280;18147;51.952;6.146;2022-12-05T10:16:51;101902.69;;;3.65;100.00
31538;BME280;18147;51.952;6.146;2022-12-05T10:19:24;101903.72;;;3.56;100.00
31538;BME280;18147;51.952;6.146;2022-12-05T10:21:55;101898.44;;;3.56;100.00
31538;BME280;18147;51.952;6.146;2022-12-05T10:24:53;101905.41;;;3.60;100.00
31538;BME280;18147;51.952;6.146;2022-12-05T10:28:10;101901.81;;;3.64;100.00
31538;BME280;18147;51.952;6.146;2022-12-05T10:30:19;101896.72;;;3.55;100.00
31538;BME280;18147;51.952;6.146;2022-12-05T10:33:04;101893.88;;;3.66;100.00
31538;BME280;18147;51.952;6.146;2022-12-05T10:35:37;101895.66;;;3.66;100.00
31538;BME280;18147;51.952;6.146;2022-12-05T10:38:21;101890.28;;;3.72;100.00
31538;BME280;18147;51.952;6.146;2022-12-05T10:40:58;101888.47;;;3.74;100.00
31538;BME280;18147;51.952;6.146;2022-12-05T10:43:27;101884.00;;;3.79;100.00
31538;BME280;18147;51.952;6.146;2022-12-05T10:45:53;101882.25;;;3.78;100.00
31538;BME280;18147;51.952;6.146;2022-12-05T10:48:20;101880.38;;;3.84;100.00
31538;BME280;18147;51.952;6.146;2022-12-05T10:50:51;101878.50;;;3.89;100.00
31538;BME280;18147;51.952;6.146;2022-12-05T10:53:20;101879.53;;;3.81;100.00
31538;BME280;18147;51.952;6.146;2022-12-05T10:55:47;101883.88;;;3.85;100.00
31538;BME280;18147;51.952;6.146;2022-12-05T10:58:26;101883.00;;;3.84;100.00
31538;BME280;18147;51.952;6.146;2022-12-05T11:00:55;101881.44;;;3.74;100.00
31538;BME280;18147;51.952;6.146;2022-12-05T11:03:30;101880.66;;;3.69;100.00
31538;BME280;18147;51.952;6.146;2022-12-05T11:05:59;101878.03;;;3.68;100.00
31538;BME280;18147;51.952;6.146;2022-12-05T11:08:30;101885.81;;;3.75;100.00
31538;BME280;18147;51.952;6.146;2022-12-05T11:11:26;101870.94;;;3.71;100.00
31538;BME280;18147;51.952;6.146;2022-12-05T11:14:21;101878.78;;;3.74;100.00
31538;BME280;18147;51.952;6.146;2022-12-05T11:16:55;101876.00;;;3.83;100.00
31538;BME280;18147;51.952;6.146;2022-12-05T11:21:48;101872.06;;;4.04;100.00
31538;BME280;18147;51.952;6.146;2022-12-05T11:24:24;101875.56;;;4.05;100.00
31538;BME280;18147;51.952;6.146;2022-12-05T11:26:51;101871.03;;;4.11;100.00
31538;BME280;18147;51.952;6.146;2022-12-05T11:29:36;101866.06;;;3.96;100.00
31538;BME280;18147;51.952;6.146;2022-12-05T11:32:04;101869.47;;;4.03;100.00
31538;BME280;18147;51.952;6.146;2022-12-05T11:34:37;101872.03;;;4.06;100.00
31538;BME280;18147;51.952;6.146;2022-12-05T11:37:10;101866.06;;;3.96;100.00
31538;BME280;18147;51.952;6.146;2022-12-05T11:39:37;101868.81;;;3.90;100.00
31538;BME280;18147;51.952;6.146;2022-12-05T11:42:18;101869.84;;;4.26;100.00
31538;BME280;18147;51.952;6.146;2022-12-05T11:44:54;101871.66;;;4.24;100.00
31538;BME280;18147;51.952;6.146;2022-12-05T11:55:45;101863.88;;;4.18;100.00
31538;BME280;18147;51.952;6.146;2022-12-05T11:58:43;101867.38;;;4.19;100.00
31538;BME280;18147;51.952;6.146;2022-12-05T12:04:31;101864.97;;;4.08;100.00
31538;BME280;18147;51.952;6.146;2022-12-05T12:09:37;101862.38;;;4.05;100.00
31538;BME280;18147;51.952;6.146;2022-12-05T12:12:18;101868.59;;;4.02;100.00
31538;BME280;18147;51.952;6.146;2022-12-05T12:25:50;101864.06;;;4.09;100.00
31538;BME280;18147;51.952;6.146;2022-12-05T12:28:33;101862.06;;;4.20;100.00
31538;BME280;18147;51.952;6.146;2022-12-05T12:36:35;101856.88;;;4.15;100.00
31538;BME280;18147;51.952;6.146;2022-12-05T12:42:24;101849.72;;;4.21;100.00
31538;BME280;18147;51.952;6.146;2022-12-05T12:50:19;101849.13;;;4.08;100.00
31538;BME280;18147;51.952;6.146;2022-12-05T13:04:16;101840.34;;;4.06;100.00
31538;BME280;18147;51.952;6.146;2022-12-05T13:07:00;101837.78;;;4.03;100.00
31538;BME280;18147;51.952;6.146;2022-12-05T13:09:34;101837.78;;;4.03;100.00
31538;BME280;18147;51.952;6.146;2022-12-05T13:12:08;101845.59;;;4.09;100.00
31538;BME280;18147;51.952;6.146;2022-12-05T13:14:38;101845.63;;;4.06;100.00
31538;BME280;18147;51.952;6.146;2022-12-05T13:17:05;101836.81;;;4.08;100.00
31538;BME280;18147;51.952;6.146;2022-12-05T13:20:02;101839.56;;;4.02;100.00
31538;BME280;18147;51.952;6.146;2022-12-05T13:22:28;101831.47;;;4.10;100.00
31538;BME280;18147;51.952;6.146;2022-12-05T13:24:54;101834.84;;;4.16;100.00
31538;BME280;18147;51.952;6.146;2022-12-05T13:27:22;101832.25;;;4.15;100.00
31538;BME280;18147;51.952;6.146;2022-12-05T13:29:52;101833.97;;;4.18;100.00
31538;BME280;18147;51.952;6.146;2022-12-05T13:32:36;101836.66;;;4.14;100.00
31538;BME280;18147;51.952;6.146;2022-12-05T13:37:31;101832.47;;;4.04;100.00
31538;BME280;18147;51.952;6.146;2022-12-05T13:40:27;101835.03;;;4.09;100.00
31538;BME280;18147;51.952;6.146;2022-12-05T13:43:16;101834.06;;;4.11;100.00
31538;BME280;18147;51.952;6.146;2022-12-05T13:48:24;101833.25;;;4.09;100.00
31538;BME280;18147;51.952;6.146;2022-12-05T13:50:55;101834.31;;;4.01;100.00
31538;BME280;18147;51.952;6.146;2022-12-05T13:56:00;101836.06;;;4.02;100.00
31538;BME280;18147;51.952;6.146;2022-12-05T14:04:02;101835.94;;;4.06;100.00
31538;BME280;18147;51.952;6.146;2022-12-05T14:09:25;101843.75;;;4.12;100.00
31538;BME280;18147;51.952;6.146;2022-12-05T14:17:22;101835.03;;;4.09;100.00
31538;BME280;18147;51.952;6.146;2022-12-05T14:34:15;101841.22;;;4.06;100.00
31538;BME280;18147;51.952;6.146;2022-12-05T14:39:41;101842.22;;;4.01;100.00
31538;BME280;18147;51.952;6.146;2022-12-05T14:42:29;101836.94;;;4.01;100.00
31538;BME280;18147;51.952;6.146;2022-12-05T14:44:58;101844.72;;;4.08;100.00
31538;BME280;18147;51.952;6.146;2022-12-05T14:47:29;101840.34;;;4.06;100.00
31538;BME280;18147;51.952;6.146;2022-12-05T15:01:26;101844.44;;;4.21;100.00
31538;BME280;18147;51.952;6.146;2022-12-05T15:04:04;101845.31;;;4.21;100.00
31538;BME280;18147;51.952;6.146;2022-12-05T15:11:54;101853.19;;;4.24;100.00
31538;BME280;18147;51.952;6.146;2022-12-05T15:14:22;101855.69;;;4.30;100.00
31538;BME280;18147;51.952;6.146;2022-12-05T15:16:52;101854.06;;;4.25;100.00
31538;BME280;18147;51.952;6.146;2022-12-05T15:19:41;101853.91;;;4.32;100.00
31538;BME280;18147;51.952;6.146;2022-12-05T15:22:12;101856.81;;;4.19;100.00
31538;BME280;18147;51.952;6.146;2022-12-05T15:24:40;101855.78;;;4.26;100.00
31538;BME280;18147;51.952;6.146;2022-12-05T15:27:09;101858.34;;;4.30;100.00
31538;BME280;18147;51.952;6.146;2022-12-05T15:29:39;101860.19;;;4.25;100.00
31538;BME280;18147;51.952;6.146;2022-12-05T15:34:55;101857.75;;;4.16;100.00
31538;BME280;18147;51.952;6.146;2022-12-05T15:37:32;101859.56;;;4.14;100.00
31538;BME280;18147;51.952;6.146;2022-12-05T15:45:23;101858.59;;;4.18;100.00
31538;BME280;18147;51.952;6.146;2022-12-05T15:47:50;101864.84;;;4.14;100.00
31538;BME280;18147;51.952;6.146;2022-12-05T15:50:35;101857.66;;;4.21;100.00